sensor_id;sensor_type;location;lat;lon;timestamp;temperature;humidity
3300;DHT22;1662;49.310;8.134;2023-06-26T00:01:20;24.20;72.40
3300;DHT22;1662;49.310;8.134;2023-06-26T00:03:47;24.20;72.60
3300;DHT22;1662;49.310;8.134;2023-06-26T00:06:13;24.10;72.70
3300;DHT22;1662;49.310;8.134;2023-06-26T00:08:39;24.10;72.80
3300;DHT22;1662;49.310;8.134;2023-06-26T00:11:04;24.10;72.90
3300;DHT22;1662;49.310;8.134;2023-06-26T00:13:30;24.10;73.50
3300;DHT22;1662;49.310;8.134;2023-06-26T00:15:56;24.10;74.10
3300;DHT22;1662;49.310;8.134;2023-06-26T00:18:28;24.10;73.70
3300;DHT22;1662;49.310;8.134;2023-06-26T00:20:54;24.10;74.00
3300;DHT22;1662;49.310;8.134;2023-06-26T00:23:19;24.00;74.00
3300;DHT22;1662;49.310;8.134;2023-06-26T00:25:45;24.00;74.10
3300;DHT22;1662;49.310;8.134;2023-06-26T00:28:10;24.00;74.30
3300;DHT22;1662;49.310;8.134;2023-06-26T00:30:36;23.90;74.50
3300;DHT22;1662;49.310;8.134;2023-06-26T00:33:02;23.90;75.00
3300;DHT22;1662;49.310;8.134;2023-06-26T00:35:27;23.90;75.10
3300;DHT22;1662;49.310;8.134;2023-06-26T00:37:53;23.90;75.20
3300;DHT22;1662;49.310;8.134;2023-06-26T00:40:18;23.90;75.30
3300;DHT22;1662;49.310;8.134;2023-06-26T00:42:44;23.90;75.70
3300;DHT22;1662;49.310;8.134;2023-06-26T00:45:10;23.80;75.90
3300;DHT22;1662;49.310;8.134;2023-06-26T00:47:36;23.80;76.10
3300;DHT22;1662;49.310;8.134;2023-06-26T00:50:02;23.80;76.40
3300;DHT22;1662;49.310;8.134;2023-06-26T00:52:31;23.80;76.60
3300;DHT22;1662;49.310;8.134;2023-06-26T00:54:56;23.80;77.00
3300;DHT22;1662;49.310;8.134;2023-06-26T00:57:23;23.80;77.30
3300;DHT22;1662;49.310;8.134;2023-06-26T00:59:49;23.80;77.70
3300;DHT22;1662;49.310;8.134;2023-06-26T01:02:15;23.80;78.10
3300;DHT22;1662;49.310;8.134;2023-06-26T01:04:49;23.70;78.60
3300;DHT22;1662;49.310;8.134;2023-06-26T01:07:16;23.70;79.00
3300;DHT22;1662;49.310;8.134;2023-06-26T01:09:48;23.70;79.20
3300;DHT22;1662;49.310;8.134;2023-06-26T01:12:14;23.60;79.20
3300;DHT22;1662;49.310;8.134;2023-06-26T01:14:40;23.60;79.60
3300;DHT22;1662;49.310;8.134;2023-06-26T01:17:06;23.60;79.70
3300;DHT22;1662;49.310;8.134;2023-06-26T01:19:33;23.60;80.00
3300;DHT22;1662;49.310;8.134;2023-06-26T01:25:09;23.60;80.70
3300;DHT22;1662;49.310;8.134;2023-06-26T01:27:38;23.50;80.70
3300;DHT22;1662;49.310;8.134;2023-06-26T01:30:05;23.50;81.00
3300;DHT22;1662;49.310;8.134;2023-06-26T01:32:31;23.50;81.90
3300;DHT22;1662;49.310;8.134;2023-06-26T01:34:59;23.50;81.90
3300;DHT22;1662;49.310;8.134;2023-06-26T01:37:25;23.50;82.40
3300;DHT22;1662;49.310;8.134;2023-06-26T01:39:50;23.50;82.40
3300;DHT22;1662;49.310;8.134;2023-06-26T01:42:16;23.40;83.10
3300;DHT22;1662;49.310;8.134;2023-06-26T01:44:46;23.40;83.20
3300;DHT22;1662;49.310;8.134;2023-06-26T01:47:17;23.40;83.50
3300;DHT22;1662;49.310;8.134;2023-06-26T01:49:52;23.30;83.70
3300;DHT22;1662;49.310;8.134;2023-06-26T01:57:36;23.30;85.20
3300;DHT22;1662;49.310;8.134;2023-06-26T02:00:03;23.30;85.00
3300;DHT22;1662;49.310;8.134;2023-06-26T02:02:29;23.20;86.00
3300;DHT22;1662;49.310;8.134;2023-06-26T02:04:55;23.20;87.70
3300;DHT22;1662;49.310;8.134;2023-06-26T02:07:21;23.10;88.30
3300;DHT22;1662;49.310;8.134;2023-06-26T02:09:46;23.10;89.90
3300;DHT22;1662;49.310;8.134;2023-06-26T02:12:12;23.00;90.70
3300;DHT22;1662;49.310;8.134;2023-06-26T02:14:38;23.00;91.30
3300;DHT22;1662;49.310;8.134;2023-06-26T02:17:04;22.90;91.70
3300;DHT22;1662;49.310;8.134;2023-06-26T02:19:32;22.80;92.40
3300;DHT22;1662;49.310;8.134;2023-06-26T02:21:57;22.70;92.60
3300;DHT22;1662;49.310;8.134;2023-06-26T02:24:23;22.70;93.30
3300;DHT22;1662;49.310;8.134;2023-06-26T02:26:48;22.60;94.30
3300;DHT22;1662;49.310;8.134;2023-06-26T02:29:15;22.60;95.80
3300;DHT22;1662;49.310;8.134;2023-06-26T02:31:40;22.50;97.10
3300;DHT22;1662;49.310;8.134;2023-06-26T02:34:06;22.50;98.90
3300;DHT22;1662;49.310;8.134;2023-06-26T02:36:34;22.40;99.90
3300;DHT22;1662;49.310;8.134;2023-06-26T02:39:00;22.40;99.90
3300;DHT22;1662;49.310;8.134;2023-06-26T02:41:25;22.30;99.90
3300;DHT22;1662;49.310;8.134;2023-06-26T02:43:51;22.20;99.90
3300;DHT22;1662;49.310;8.134;2023-06-26T02:46:17;22.20;99.90
3300;DHT22;1662;49.310;8.134;2023-06-26T02:48:42;22.10;99.90
3300;DHT22;1662;49.310;8.134;2023-06-26T02:51:08;22.00;99.90
3300;DHT22;1662;49.310;8.134;2023-06-26T02:53:35;22.00;99.90
3300;DHT22;1662;49.310;8.134;2023-06-26T02:56:01;22.00;99.90
3300;DHT22;1662;49.310;8.134;2023-06-26T02:58:27;21.90;99.90
3300;DHT22;1662;49.310;8.134;2023-06-26T03:00:53;21.90;99.90
3300;DHT22;1662;49.310;8.134;2023-06-26T03:03:21;21.80;99.90
3300;DHT22;1662;49.310;8.134;2023-06-26T03:05:47;21.80;99.90
3300;DHT22;1662;49.310;8.134;2023-06-26T03:08:12;21.80;99.90
3300;DHT22;1662;49.310;8.134;2023-06-26T03:10:38;21.80;99.90
3300;DHT22;1662;49.310;8.134;2023-06-26T03:13:06;21.70;99.90
3300;DHT22;1662;49.310;8.134;2023-06-26T03:15:32;21.70;99.90
3300;DHT22;1662;49.310;8.134;2023-06-26T03:17:57;21.60;99.90
3300;DHT22;1662;49.310;8.134;2023-06-26T03:20:23;21.60;99.90
3300;DHT22;1662;49.310;8.134;2023-06-26T03:22:48;21.60;99.90
3300;DHT22;1662;49.310;8.134;2023-06-26T03:27:40;21.50;99.90
3300;DHT22;1662;49.310;8.134;2023-06-26T03:30:06;21.50;99.90
3300;DHT22;1662;49.310;8.134;2023-06-26T03:32:31;21.50;99.90
3300;DHT22;1662;49.310;8.134;2023-06-26T03:34:57;21.40;99.90
3300;DHT22;1662;49.310;8.134;2023-06-26T03:37:26;21.40;99.90
3300;DHT22;1662;49.310;8.134;2023-06-26T03:39:51;21.40;99.90
3300;DHT22;1662;49.310;8.134;2023-06-26T03:42:17;21.40;99.90
3300;DHT22;1662;49.310;8.134;2023-06-26T03:44:43;21.30;99.90
3300;DHT22;1662;49.310;8.134;2023-06-26T03:47:08;21.40;99.90
3300;DHT22;1662;49.310;8.134;2023-06-26T03:49:36;21.40;99.90
3300;DHT22;1662;49.310;8.134;2023-06-26T03:52:04;21.40;99.90
3300;DHT22;1662;49.310;8.134;2023-06-26T03:54:32;21.40;99.90
3300;DHT22;1662;49.310;8.134;2023-06-26T03:56:59;21.30;99.90
3300;DHT22;1662;49.310;8.134;2023-06-26T03:59:24;21.30;99.90
3300;DHT22;1662;49.310;8.134;2023-06-26T04:01:52;21.30;99.90
3300;DHT22;1662;49.310;8.134;2023-06-26T04:04:18;21.30;99.90
3300;DHT22;1662;49.310;8.134;2023-06-26T04:06:44;21.30;99.90
3300;DHT22;1662;49.310;8.134;2023-06-26T04:09:09;21.30;99.90
3300;DHT22;1662;49.310;8.134;2023-06-26T04:11:35;21.30;99.90
3300;DHT22;1662;49.310;8.134;2023-06-26T04:14:00;21.20;99.90
3300;DHT22;1662;49.310;8.134;2023-06-26T04:16:26;21.20;99.90
3300;DHT22;1662;49.310;8.134;2023-06-26T04:18:52;21.20;99.90
3300;DHT22;1662;49.310;8.134;2023-06-26T04:21:18;21.20;99.90
3300;DHT22;1662;49.310;8.134;2023-06-26T04:23:45;21.30;99.90
3300;DHT22;1662;49.310;8.134;2023-06-26T04:26:10;21.30;99.90
3300;DHT22;1662;49.310;8.134;2023-06-26T04:28:39;21.30;99.90
3300;DHT22;1662;49.310;8.134;2023-06-26T04:31:05;21.30;99.90
3300;DHT22;1662;49.310;8.134;2023-06-26T04:33:31;21.30;99.90
3300;DHT22;1662;49.310;8.134;2023-06-26T04:35:56;21.30;99.90
3300;DHT22;1662;49.310;8.134;2023-06-26T04:38:23;21.30;99.90
3300;DHT22;1662;49.310;8.134;2023-06-26T04:40:48;21.30;99.90
3300;DHT22;1662;49.310;8.134;2023-06-26T04:43:14;21.30;99.90
3300;DHT22;1662;49.310;8.134;2023-06-26T04:45:40;21.30;99.90
3300;DHT22;1662;49.310;8.134;2023-06-26T04:48:06;21.40;99.90
3300;DHT22;1662;49.310;8.134;2023-06-26T04:50:33;21.40;99.90
3300;DHT22;1662;49.310;8.134;2023-06-26T04:52:59;21.40;99.90
3300;DHT22;1662;49.310;8.134;2023-06-26T04:55:25;21.40;99.90
3300;DHT22;1662;49.310;8.134;2023-06-26T04:57:51;21.50;99.90
3300;DHT22;1662;49.310;8.134;2023-06-26T05:00:17;21.50;99.90
3300;DHT22;1662;49.310;8.134;2023-06-26T05:02:42;21.50;99.90
3300;DHT22;1662;49.310;8.134;2023-06-26T05:05:08;21.50;99.90
3300;DHT22;1662;49.310;8.134;2023-06-26T05:07:34;21.50;99.90
3300;DHT22;1662;49.310;8.134;2023-06-26T05:09:59;21.50;99.90
3300;DHT22;1662;49.310;8.134;2023-06-26T05:12:25;21.50;99.90
3300;DHT22;1662;49.310;8.134;2023-06-26T05:14:50;21.50;99.90
3300;DHT22;1662;49.310;8.134;2023-06-26T05:17:16;21.50;99.90
3300;DHT22;1662;49.310;8.134;2023-06-26T05:19:42;21.50;99.90
3300;DHT22;1662;49.310;8.134;2023-06-26T05:22:08;21.50;99.90
3300;DHT22;1662;49.310;8.134;2023-06-26T05:24:35;21.40;99.90
3300;DHT22;1662;49.310;8.134;2023-06-26T05:27:01;21.50;99.90
3300;DHT22;1662;49.310;8.134;2023-06-26T05:29:28;21.50;99.90
3300;DHT22;1662;49.310;8.134;2023-06-26T05:31:56;21.50;99.90
3300;DHT22;1662;49.310;8.134;2023-06-26T05:34:25;21.60;99.90
3300;DHT22;1662;49.310;8.134;2023-06-26T05:36:58;21.60;99.90
3300;DHT22;1662;49.310;8.134;2023-06-26T05:39:24;21.60;99.90
3300;DHT22;1662;49.310;8.134;2023-06-26T05:41:52;21.70;99.90
3300;DHT22;1662;49.310;8.134;2023-06-26T05:44:21;21.70;99.90
3300;DHT22;1662;49.310;8.134;2023-06-26T05:46:46;21.80;99.90
3300;DHT22;1662;49.310;8.134;2023-06-26T05:49:12;21.80;99.90
3300;DHT22;1662;49.310;8.134;2023-06-26T05:51:37;21.80;99.90
3300;DHT22;1662;49.310;8.134;2023-06-26T05:54:03;21.90;99.90
3300;DHT22;1662;49.310;8.134;2023-06-26T05:56:30;21.90;99.90
3300;DHT22;1662;49.310;8.134;2023-06-26T05:58:56;22.00;99.90
3300;DHT22;1662;49.310;8.134;2023-06-26T06:01:22;22.00;99.90
3300;DHT22;1662;49.310;8.134;2023-06-26T06:03:48;22.10;99.90
3300;DHT22;1662;49.310;8.134;2023-06-26T06:06:14;22.10;99.90
3300;DHT22;1662;49.310;8.134;2023-06-26T06:08:41;22.20;99.90
3300;DHT22;1662;49.310;8.134;2023-06-26T06:11:09;22.20;99.90
3300;DHT22;1662;49.310;8.134;2023-06-26T06:13:34;22.20;99.90
3300;DHT22;1662;49.310;8.134;2023-06-26T06:16:00;22.40;99.90
3300;DHT22;1662;49.310;8.134;2023-06-26T06:18:25;22.40;99.90
3300;DHT22;1662;49.310;8.134;2023-06-26T06:20:51;22.50;99.90
3300;DHT22;1662;49.310;8.134;2023-06-26T06:23:19;22.60;99.90
3300;DHT22;1662;49.310;8.134;2023-06-26T06:25:45;22.60;99.90
3300;DHT22;1662;49.310;8.134;2023-06-26T06:28:10;22.60;99.90
3300;DHT22;1662;49.310;8.134;2023-06-26T06:30:36;22.70;99.90
3300;DHT22;1662;49.310;8.134;2023-06-26T06:33:04;22.80;99.90
3300;DHT22;1662;49.310;8.134;2023-06-26T06:35:29;22.80;99.90
3300;DHT22;1662;49.310;8.134;2023-06-26T06:37:55;22.80;99.90
3300;DHT22;1662;49.310;8.134;2023-06-26T06:40:22;22.80;99.90
3300;DHT22;1662;49.310;8.134;2023-06-26T06:42:51;22.90;99.90
3300;DHT22;1662;49.310;8.134;2023-06-26T06:45:16;22.90;99.90
3300;DHT22;1662;49.310;8.134;2023-06-26T06:47:42;23.00;99.90
3300;DHT22;1662;49.310;8.134;2023-06-26T06:50:08;23.10;99.90
3300;DHT22;1662;49.310;8.134;2023-06-26T06:52:40;23.10;99.90
3300;DHT22;1662;49.310;8.134;2023-06-26T06:55:07;23.20;99.90
3300;DHT22;1662;49.310;8.134;2023-06-26T06:57:38;23.30;99.90
3300;DHT22;1662;49.310;8.134;2023-06-26T07:00:09;23.40;99.90
3300;DHT22;1662;49.310;8.134;2023-06-26T07:02:39;23.40;99.90
3300;DHT22;1662;49.310;8.134;2023-06-26T07:05:06;23.50;99.90
3300;DHT22;1662;49.310;8.134;2023-06-26T07:07:33;23.50;99.90
3300;DHT22;1662;49.310;8.134;2023-06-26T07:10:10;23.60;99.90
3300;DHT22;1662;49.310;8.134;2023-06-26T07:12:36;23.70;99.90
3300;DHT22;1662;49.310;8.134;2023-06-26T07:15:03;23.80;99.90
3300;DHT22;1662;49.310;8.134;2023-06-26T07:17:30;23.90;99.90
3300;DHT22;1662;49.310;8.134;2023-06-26T07:19:56;24.10;99.90
3300;DHT22;1662;49.310;8.134;2023-06-26T07:22:22;24.30;99.90
3300;DHT22;1662;49.310;8.134;2023-06-26T07:24:48;24.30;99.90
3300;DHT22;1662;49.310;8.134;2023-06-26T07:27:17;24.50;99.90
3300;DHT22;1662;49.310;8.134;2023-06-26T07:29:44;24.50;99.90
3300;DHT22;1662;49.310;8.134;2023-06-26T07:32:10;24.70;99.90
3300;DHT22;1662;49.310;8.134;2023-06-26T07:34:36;24.80;99.90
3300;DHT22;1662;49.310;8.134;2023-06-26T07:37:02;24.80;99.90
3300;DHT22;1662;49.310;8.134;2023-06-26T07:39:28;24.90;99.90
3300;DHT22;1662;49.310;8.134;2023-06-26T07:41:53;25.00;99.90
3300;DHT22;1662;49.310;8.134;2023-06-26T07:44:19;25.20;99.90
3300;DHT22;1662;49.310;8.134;2023-06-26T07:46:45;25.40;99.90
3300;DHT22;1662;49.310;8.134;2023-06-26T07:49:11;25.50;99.90
3300;DHT22;1662;49.310;8.134;2023-06-26T07:51:37;25.40;99.90
3300;DHT22;1662;49.310;8.134;2023-06-26T07:54:03;25.40;99.90
3300;DHT22;1662;49.310;8.134;2023-06-26T07:56:29;25.50;99.90
3300;DHT22;1662;49.310;8.134;2023-06-26T07:58:57;25.60;99.90
3300;DHT22;1662;49.310;8.134;2023-06-26T08:01:24;25.70;99.90
3300;DHT22;1662;49.310;8.134;2023-06-26T08:03:52;25.70;99.90
3300;DHT22;1662;49.310;8.134;2023-06-26T08:06:18;25.70;99.90
3300;DHT22;1662;49.310;8.134;2023-06-26T08:08:44;25.70;99.90
3300;DHT22;1662;49.310;8.134;2023-06-26T08:11:09;25.80;99.90
3300;DHT22;1662;49.310;8.134;2023-06-26T08:13:35;26.00;99.90
3300;DHT22;1662;49.310;8.134;2023-06-26T08:16:01;26.00;99.90
3300;DHT22;1662;49.310;8.134;2023-06-26T08:18:26;26.00;99.90
3300;DHT22;1662;49.310;8.134;2023-06-26T08:20:52;26.00;99.90
3300;DHT22;1662;49.310;8.134;2023-06-26T08:23:17;26.00;99.90
3300;DHT22;1662;49.310;8.134;2023-06-26T08:25:43;26.00;99.90
3300;DHT22;1662;49.310;8.134;2023-06-26T08:28:08;26.10;99.90
3300;DHT22;1662;49.310;8.134;2023-06-26T08:30:34;26.20;99.90
3300;DHT22;1662;49.310;8.134;2023-06-26T08:33:02;26.20;99.90
3300;DHT22;1662;49.310;8.134;2023-06-26T08:35:27;26.20;99.90
3300;DHT22;1662;49.310;8.134;2023-06-26T08:37:53;26.30;99.90
3300;DHT22;1662;49.310;8.134;2023-06-26T08:40:21;26.30;99.90
3300;DHT22;1662;49.310;8.134;2023-06-26T08:42:47;26.30;99.90
3300;DHT22;1662;49.310;8.134;2023-06-26T08:45:14;26.40;99.90
3300;DHT22;1662;49.310;8.134;2023-06-26T08:47:43;26.40;99.90
3300;DHT22;1662;49.310;8.134;2023-06-26T08:50:12;26.50;99.90
3300;DHT22;1662;49.310;8.134;2023-06-26T08:52:43;26.60;99.90
3300;DHT22;1662;49.310;8.134;2023-06-26T08:55:12;26.60;99.90
3300;DHT22;1662;49.310;8.134;2023-06-26T08:57:40;26.70;99.90
3300;DHT22;1662;49.310;8.134;2023-06-26T09:00:06;26.90;99.90
3300;DHT22;1662;49.310;8.134;2023-06-26T09:02:35;27.00;99.90
3300;DHT22;1662;49.310;8.134;2023-06-26T09:05:02;27.10;99.90
3300;DHT22;1662;49.310;8.134;2023-06-26T09:07:28;27.20;99.90
3300;DHT22;1662;49.310;8.134;2023-06-26T09:09:54;27.20;99.90
3300;DHT22;1662;49.310;8.134;2023-06-26T09:12:21;27.20;99.90
3300;DHT22;1662;49.310;8.134;2023-06-26T09:14:47;27.20;99.90
3300;DHT22;1662;49.310;8.134;2023-06-26T09:17:14;27.30;99.90
3300;DHT22;1662;49.310;8.134;2023-06-26T09:19:39;27.30;99.90
3300;DHT22;1662;49.310;8.134;2023-06-26T09:22:12;27.30;99.90
3300;DHT22;1662;49.310;8.134;2023-06-26T09:24:40;27.30;99.90
3300;DHT22;1662;49.310;8.134;2023-06-26T09:27:06;27.30;99.90
3300;DHT22;1662;49.310;8.134;2023-06-26T09:29:32;27.40;99.90
3300;DHT22;1662;49.310;8.134;2023-06-26T09:31:59;27.50;99.90
3300;DHT22;1662;49.310;8.134;2023-06-26T09:34:30;27.50;99.90
3300;DHT22;1662;49.310;8.134;2023-06-26T09:36:58;27.40;99.90
3300;DHT22;1662;49.310;8.134;2023-06-26T09:39:23;27.40;99.90
3300;DHT22;1662;49.310;8.134;2023-06-26T09:41:50;27.60;99.90
3300;DHT22;1662;49.310;8.134;2023-06-26T09:44:15;27.80;99.90
3300;DHT22;1662;49.310;8.134;2023-06-26T09:46:42;28.00;99.90
3300;DHT22;1662;49.310;8.134;2023-06-26T09:49:11;28.10;99.90
3300;DHT22;1662;49.310;8.134;2023-06-26T09:51:38;28.30;99.90
3300;DHT22;1662;49.310;8.134;2023-06-26T09:54:05;28.40;99.90
3300;DHT22;1662;49.310;8.134;2023-06-26T09:56:32;28.40;99.90
3300;DHT22;1662;49.310;8.134;2023-06-26T09:59:02;28.50;99.90
3300;DHT22;1662;49.310;8.134;2023-06-26T10:01:29;28.60;99.90
3300;DHT22;1662;49.310;8.134;2023-06-26T10:03:55;28.60;99.90
3300;DHT22;1662;49.310;8.134;2023-06-26T10:08:52;28.60;99.90
3300;DHT22;1662;49.310;8.134;2023-06-26T10:11:21;28.50;99.90
3300;DHT22;1662;49.310;8.134;2023-06-26T10:13:50;28.40;99.90
3300;DHT22;1662;49.310;8.134;2023-06-26T10:16:25;28.50;99.90
3300;DHT22;1662;49.310;8.134;2023-06-26T10:18:53;28.60;99.90
3300;DHT22;1662;49.310;8.134;2023-06-26T10:21:20;28.70;99.90
3300;DHT22;1662;49.310;8.134;2023-06-26T10:23:48;28.60;99.90
3300;DHT22;1662;49.310;8.134;2023-06-26T10:26:16;28.60;99.90
3300;DHT22;1662;49.310;8.134;2023-06-26T10:28:43;28.70;99.90
3300;DHT22;1662;49.310;8.134;2023-06-26T10:31:11;28.80;99.90
3300;DHT22;1662;49.310;8.134;2023-06-26T10:33:38;28.90;99.90
3300;DHT22;1662;49.310;8.134;2023-06-26T10:36:15;29.00;99.90
3300;DHT22;1662;49.310;8.134;2023-06-26T10:38:51;29.20;99.90
3300;DHT22;1662;49.310;8.134;2023-06-26T10:41:24;29.30;99.90
3300;DHT22;1662;49.310;8.134;2023-06-26T10:44:11;29.40;99.90
3300;DHT22;1662;49.310;8.134;2023-06-26T10:46:53;29.50;99.90
3300;DHT22;1662;49.310;8.134;2023-06-26T10:49:24;29.50;99.90
3300;DHT22;1662;49.310;8.134;2023-06-26T10:51:51;29.40;99.90
3300;DHT22;1662;49.310;8.134;2023-06-26T10:54:18;29.40;99.90
3300;DHT22;1662;49.310;8.134;2023-06-26T10:56:45;29.40;99.90
3300;DHT22;1662;49.310;8.134;2023-06-26T10:59:26;29.20;99.90
3300;DHT22;1662;49.310;8.134;2023-06-26T11:02:07;29.40;99.90
3300;DHT22;1662;49.310;8.134;2023-06-26T11:04:49;29.40;99.90
3300;DHT22;1662;49.310;8.134;2023-06-26T11:07:21;29.50;99.90
3300;DHT22;1662;49.310;8.134;2023-06-26T11:10:07;29.70;99.90
3300;DHT22;1662;49.310;8.134;2023-06-26T11:12:44;29.90;99.90
3300;DHT22;1662;49.310;8.134;2023-06-26T11:15:13;29.90;99.90
3300;DHT22;1662;49.310;8.134;2023-06-26T11:17:40;29.70;99.90
3300;DHT22;1662;49.310;8.134;2023-06-26T11:20:11;29.90;99.90
3300;DHT22;1662;49.310;8.134;2023-06-26T11:22:38;30.00;99.60
3300;DHT22;1662;49.310;8.134;2023-06-26T11:25:05;30.00;98.70
3300;DHT22;1662;49.310;8.134;2023-06-26T11:27:41;30.10;98.60
3300;DHT22;1662;49.310;8.134;2023-06-26T11:30:12;30.10;99.10
3300;DHT22;1662;49.310;8.134;2023-06-26T11:32:47;30.20;97.10
3300;DHT22;1662;49.310;8.134;2023-06-26T11:35:13;30.20;96.40
3300;DHT22;1662;49.310;8.134;2023-06-26T11:37:40;30.30;96.00
3300;DHT22;1662;49.310;8.134;2023-06-26T11:40:19;30.30;94.60
3300;DHT22;1662;49.310;8.134;2023-06-26T11:42:45;30.20;94.20
3300;DHT22;1662;49.310;8.134;2023-06-26T11:45:10;30.30;93.00
3300;DHT22;1662;49.310;8.134;2023-06-26T11:47:39;30.40;93.00
3300;DHT22;1662;49.310;8.134;2023-06-26T11:50:05;30.30;92.30
3300;DHT22;1662;49.310;8.134;2023-06-26T11:52:33;30.40;92.00
3300;DHT22;1662;49.310;8.134;2023-06-26T11:54:58;30.40;91.50
3300;DHT22;1662;49.310;8.134;2023-06-26T11:57:24;30.40;91.40
3300;DHT22;1662;49.310;8.134;2023-06-26T11:59:50;30.60;91.10
3300;DHT22;1662;49.310;8.134;2023-06-26T12:02:16;30.70;90.30
3300;DHT22;1662;49.310;8.134;2023-06-26T12:04:43;30.70;90.10
3300;DHT22;1662;49.310;8.134;2023-06-26T12:07:09;30.80;89.80
3300;DHT22;1662;49.310;8.134;2023-06-26T12:09:41;30.90;89.70
3300;DHT22;1662;49.310;8.134;2023-06-26T12:12:08;30.90;88.90
3300;DHT22;1662;49.310;8.134;2023-06-26T12:14:34;31.00;88.90
3300;DHT22;1662;49.310;8.134;2023-06-26T12:17:11;31.00;88.30
3300;DHT22;1662;49.310;8.134;2023-06-26T12:19:38;31.00;87.10
3300;DHT22;1662;49.310;8.134;2023-06-26T12:22:08;31.00;87.00
3300;DHT22;1662;49.310;8.134;2023-06-26T12:24:37;30.90;87.00
3300;DHT22;1662;49.310;8.134;2023-06-26T12:27:08;31.10;86.00
3300;DHT22;1662;49.310;8.134;2023-06-26T12:29:35;31.20;85.00
3300;DHT22;1662;49.310;8.134;2023-06-26T12:32:01;31.20;84.20
3300;DHT22;1662;49.310;8.134;2023-06-26T12:34:30;31.30;84.00
3300;DHT22;1662;49.310;8.134;2023-06-26T12:37:00;31.30;83.40
3300;DHT22;1662;49.310;8.134;2023-06-26T12:39:27;31.20;83.30
3300;DHT22;1662;49.310;8.134;2023-06-26T12:41:59;31.40;83.00
3300;DHT22;1662;49.310;8.134;2023-06-26T12:44:28;31.40;81.70
3300;DHT22;1662;49.310;8.134;2023-06-26T12:47:00;31.50;81.60
3300;DHT22;1662;49.310;8.134;2023-06-26T12:49:36;31.60;82.30
3300;DHT22;1662;49.310;8.134;2023-06-26T12:52:04;31.80;81.00
3300;DHT22;1662;49.310;8.134;2023-06-26T12:54:30;31.80;80.00
3300;DHT22;1662;49.310;8.134;2023-06-26T12:56:57;32.00;79.90
3300;DHT22;1662;49.310;8.134;2023-06-26T12:59:23;32.10;78.30
3300;DHT22;1662;49.310;8.134;2023-06-26T13:01:49;32.10;77.80
3300;DHT22;1662;49.310;8.134;2023-06-26T13:04:15;32.10;77.60
3300;DHT22;1662;49.310;8.134;2023-06-26T13:06:40;31.90;78.00
3300;DHT22;1662;49.310;8.134;2023-06-26T13:09:06;31.90;80.00
3300;DHT22;1662;49.310;8.134;2023-06-26T13:11:34;32.10;77.00
3300;DHT22;1662;49.310;8.134;2023-06-26T13:14:01;32.10;75.30
3300;DHT22;1662;49.310;8.134;2023-06-26T13:16:29;31.80;74.40
3300;DHT22;1662;49.310;8.134;2023-06-26T13:18:57;31.70;75.90
3300;DHT22;1662;49.310;8.134;2023-06-26T13:21:23;31.80;74.20
3300;DHT22;1662;49.310;8.134;2023-06-26T13:23:49;31.90;71.40
3300;DHT22;1662;49.310;8.134;2023-06-26T13:26:14;31.80;71.00
3300;DHT22;1662;49.310;8.134;2023-06-26T13:28:40;31.80;70.60
3300;DHT22;1662;49.310;8.134;2023-06-26T13:31:06;31.80;70.00
3300;DHT22;1662;49.310;8.134;2023-06-26T13:33:31;31.80;69.80
3300;DHT22;1662;49.310;8.134;2023-06-26T13:35:57;31.60;70.00
3300;DHT22;1662;49.310;8.134;2023-06-26T13:38:24;31.40;70.00
3300;DHT22;1662;49.310;8.134;2023-06-26T13:40:53;31.50;70.20
3300;DHT22;1662;49.310;8.134;2023-06-26T13:43:21;31.60;66.80
3300;DHT22;1662;49.310;8.134;2023-06-26T13:45:47;31.60;68.00
3300;DHT22;1662;49.310;8.134;2023-06-26T13:48:13;31.50;68.10
3300;DHT22;1662;49.310;8.134;2023-06-26T13:50:39;31.40;66.10
3300;DHT22;1662;49.310;8.134;2023-06-26T13:53:04;31.50;65.00
3300;DHT22;1662;49.310;8.134;2023-06-26T13:55:31;31.60;63.90
3300;DHT22;1662;49.310;8.134;2023-06-26T13:57:56;31.40;63.30
3300;DHT22;1662;49.310;8.134;2023-06-26T14:00:24;31.50;62.60
3300;DHT22;1662;49.310;8.134;2023-06-26T14:02:51;31.60;61.90
3300;DHT22;1662;49.310;8.134;2023-06-26T14:05:17;31.60;62.10
3300;DHT22;1662;49.310;8.134;2023-06-26T14:07:44;31.70;61.30
3300;DHT22;1662;49.310;8.134;2023-06-26T14:10:09;31.70;61.50
3300;DHT22;1662;49.310;8.134;2023-06-26T14:12:35;31.60;60.60
3300;DHT22;1662;49.310;8.134;2023-06-26T14:15:01;31.80;59.90
3300;DHT22;1662;49.310;8.134;2023-06-26T14:17:27;32.00;59.10
3300;DHT22;1662;49.310;8.134;2023-06-26T14:19:53;32.20;59.50
3300;DHT22;1662;49.310;8.134;2023-06-26T14:22:18;32.10;57.20
3300;DHT22;1662;49.310;8.134;2023-06-26T14:24:47;31.80;56.80
3300;DHT22;1662;49.310;8.134;2023-06-26T14:27:13;31.60;57.10
3300;DHT22;1662;49.310;8.134;2023-06-26T14:29:38;31.60;59.20
3300;DHT22;1662;49.310;8.134;2023-06-26T14:32:05;31.70;55.80
3300;DHT22;1662;49.310;8.134;2023-06-26T14:34:32;31.40;55.90
3300;DHT22;1662;49.310;8.134;2023-06-26T14:36:58;31.00;56.30
3300;DHT22;1662;49.310;8.134;2023-06-26T14:39:23;30.80;55.80
3300;DHT22;1662;49.310;8.134;2023-06-26T14:41:49;30.60;56.50
3300;DHT22;1662;49.310;8.134;2023-06-26T14:44:17;30.50;56.60
3300;DHT22;1662;49.310;8.134;2023-06-26T14:46:42;30.40;56.60
3300;DHT22;1662;49.310;8.134;2023-06-26T14:49:08;30.30;57.50
3300;DHT22;1662;49.310;8.134;2023-06-26T14:51:34;30.20;56.90
3300;DHT22;1662;49.310;8.134;2023-06-26T14:54:00;30.50;57.00
3300;DHT22;1662;49.310;8.134;2023-06-26T14:56:26;30.60;56.30
3300;DHT22;1662;49.310;8.134;2023-06-26T14:58:52;30.80;56.70
3300;DHT22;1662;49.310;8.134;2023-06-26T15:01:18;31.00;56.70
3300;DHT22;1662;49.310;8.134;2023-06-26T15:03:48;31.00;56.70
3300;DHT22;1662;49.310;8.134;2023-06-26T15:06:14;31.00;56.40
3300;DHT22;1662;49.310;8.134;2023-06-26T15:08:40;30.50;56.70
3300;DHT22;1662;49.310;8.134;2023-06-26T15:11:06;30.50;57.30
3300;DHT22;1662;49.310;8.134;2023-06-26T15:13:32;30.80;57.40
3300;DHT22;1662;49.310;8.134;2023-06-26T15:15:58;31.10;57.20
3300;DHT22;1662;49.310;8.134;2023-06-26T15:18:26;31.10;56.70
3300;DHT22;1662;49.310;8.134;2023-06-26T15:20:51;31.00;56.60
3300;DHT22;1662;49.310;8.134;2023-06-26T15:23:17;30.70;57.00
3300;DHT22;1662;49.310;8.134;2023-06-26T15:25:42;30.50;57.10
3300;DHT22;1662;49.310;8.134;2023-06-26T15:28:08;30.30;56.80
3300;DHT22;1662;49.310;8.134;2023-06-26T15:30:34;30.20;56.80
3300;DHT22;1662;49.310;8.134;2023-06-26T15:32:59;30.20;57.10
3300;DHT22;1662;49.310;8.134;2023-06-26T15:35:29;30.20;57.50
3300;DHT22;1662;49.310;8.134;2023-06-26T15:37:55;30.40;57.40
3300;DHT22;1662;49.310;8.134;2023-06-26T15:40:20;30.60;57.40
3300;DHT22;1662;49.310;8.134;2023-06-26T15:42:50;30.50;56.60
3300;DHT22;1662;49.310;8.134;2023-06-26T15:45:16;30.70;56.00
3300;DHT22;1662;49.310;8.134;2023-06-26T15:47:48;30.40;55.80
3300;DHT22;1662;49.310;8.134;2023-06-26T15:50:14;30.40;56.20
3300;DHT22;1662;49.310;8.134;2023-06-26T15:52:40;30.50;57.30
3300;DHT22;1662;49.310;8.134;2023-06-26T15:55:06;30.60;55.70
3300;DHT22;1662;49.310;8.134;2023-06-26T15:57:32;30.70;55.50
3300;DHT22;1662;49.310;8.134;2023-06-26T15:59:58;30.60;54.50
3300;DHT22;1662;49.310;8.134;2023-06-26T16:02:25;30.70;53.20
3300;DHT22;1662;49.310;8.134;2023-06-26T16:04:50;30.70;53.90
3300;DHT22;1662;49.310;8.134;2023-06-26T16:07:16;30.80;54.40
3300;DHT22;1662;49.310;8.134;2023-06-26T16:09:41;30.60;54.30
3300;DHT22;1662;49.310;8.134;2023-06-26T16:12:10;30.70;53.70
3300;DHT22;1662;49.310;8.134;2023-06-26T16:14:35;30.60;53.70